Time;durP1;ratioP1;P1;durP2;ratioP2;P2;SDS_P1;SDS_P2;PMS_P1;PMS_P2;Temp;Humidity;BMP_temperature;BMP_pressure;BME280_temperature;BME280_humidity;BME280_pressure;Samples;Min_cycle;Max_cycle;Signal;HPM_P1;HPM_P2
2023/03/22 00:01:23;;;;;;;22.40;14.10;;;7.70;98.90;;;;;;5047060;28;20110;-77
2023/03/22 00:03:50;;;;;;;23.08;13.95;;;7.70;98.80;;;;;;5048475;28;20413;-77
2023/03/22 00:06:16;;;;;;;21.58;14.00;;;7.80;99.00;;;;;;5049276;28;20029;-77
2023/03/22 00:08:42;;;;;;;21.63;14.05;;;7.90;98.90;;;;;;5046116;28;20055;-78
2023/03/22 00:11:09;;;;;;;24.05;14.48;;;7.90;98.70;;;;;;5050798;28;20037;-77
2023/03/22 00:13:36;;;;;;;22.98;14.50;;;8.00;98.60;;;;;;5050222;28;20491;-77
2023/03/22 00:16:02;;;;;;;22.58;13.95;;;7.90;98.60;;;;;;5046435;28;20090;-78
2023/03/22 00:18:29;;;;;;;21.05;13.95;;;7.90;98.70;;;;;;5037152;28;20045;-77
2023/03/22 00:20:56;;;;;;;21.13;13.48;;;8.00;98.70;;;;;;5039670;28;20032;-76
2023/03/22 00:23:23;;;;;;;21.52;13.45;;;8.00;98.70;;;;;;5045973;28;20020;-78
2023/03/22 00:25:49;;;;;;;18.85;13.25;;;8.00;98.60;;;;;;5047423;28;20466;-77
2023/03/22 00:28:15;;;;;;;21.95;13.13;;;8.00;98.70;;;;;;5046619;28;20374;-78
2023/03/22 00:30:42;;;;;;;22.58;13.65;;;8.00;98.60;;;;;;5046092;28;20079;-77
2023/03/22 00:33:08;;;;;;;20.35;12.98;;;8.00;98.60;;;;;;5044630;28;20131;-77
2023/03/22 00:35:34;;;;;;;20.27;12.45;;;8.00;98.60;;;;;;5046311;28;20033;-77
2023/03/22 00:38:04;;;;;;;19.65;12.73;;;8.00;98.40;;;;;;5046560;28;20059;-77
2023/03/22 00:40:31;;;;;;;20.70;13.07;;;8.10;98.40;;;;;;5043268;28;20113;-76
2023/03/22 00:42:57;;;;;;;22.42;13.52;;;8.10;98.30;;;;;;5030366;28;20040;-76
2023/03/22 00:45:22;;;;;;;21.92;13.15;;;8.20;98.20;;;;;;5048401;28;20043;-78
2023/03/22 00:47:48;;;;;;;21.52;12.65;;;8.10;98.10;;;;;;5028619;28;20052;-77
2023/03/22 00:50:13;;;;;;;19.35;12.52;;;8.20;98.00;;;;;;5044357;28;20043;-78
2023/03/22 00:52:39;;;;;;;19.65;13.20;;;8.20;98.00;;;;;;5046107;28;20044;-78
2023/03/22 00:55:05;;;;;;;18.95;12.18;;;8.20;98.00;;;;;;5048488;28;20040;-78
2023/03/22 00:57:30;;;;;;;19.85;13.15;;;8.10;98.10;;;;;;5049755;28;20377;-78
2023/03/22 00:59:57;;;;;;;20.20;12.95;;;8.10;98.20;;;;;;5043303;28;20025;-77
2023/03/22 01:02:28;;;;;;;18.40;11.60;;;8.20;98.20;;;;;;5050023;28;20373;-77
2023/03/22 01:04:54;;;;;;;20.55;13.82;;;8.10;98.10;;;;;;5022443;28;20481;-78
2023/03/22 01:07:22;;;;;;;21.92;12.98;;;8.20;98.00;;;;;;5043274;28;20029;-77
2023/03/22 01:09:48;;;;;;;20.48;12.45;;;8.20;97.90;;;;;;5041099;28;20355;-76
2023/03/22 01:12:14;;;;;;;21.30;12.93;;;8.30;97.90;;;;;;5049978;28;20035;-77
2023/03/22 01:14:40;;;;;;;17.73;11.52;;;8.20;97.90;;;;;;5053556;28;20051;-78
2023/03/22 01:17:06;;;;;;;19.45;12.82;;;8.20;97.90;;;;;;5050048;28;20068;-77
2023/03/22 01:19:32;;;;;;;18.45;12.48;;;8.20;98.00;;;;;;5043982;28;20144;-77
2023/03/22 01:21:58;;;;;;;21.73;13.90;;;8.30;97.80;;;;;;5049830;28;20082;-77
2023/03/22 01:24:24;;;;;;;16.33;12.13;;;8.20;97.70;;;;;;5050877;28;20041;-77
2023/03/22 01:26:50;;;;;;;23.52;12.60;;;8.20;97.80;;;;;;5050906;28;20035;-76
2023/03/22 01:29:15;;;;;;;16.70;12.82;;;8.10;97.80;;;;;;5030973;28;20037;-77
2023/03/22 01:31:41;;;;;;;18.50;12.85;;;8.00;97.90;;;;;;5050255;28;20083;-77
2023/03/22 01:34:07;;;;;;;21.40;13.85;;;8.10;98.20;;;;;;5034584;28;20051;-77
2023/03/22 01:36:32;;;;;;;22.17;12.88;;;8.10;98.10;;;;;;5047813;28;20033;-78
2023/03/22 01:38:58;;;;;;;21.58;14.13;;;8.00;98.10;;;;;;5049194;28;20048;-77
2023/03/22 01:41:24;;;;;;;20.60;13.90;;;8.10;98.20;;;;;;5048914;28;20059;-77
2023/03/22 01:44:10;;;;;;;21.60;14.40;;;8.10;98.20;;;;;;5050237;28;20442;-76
2023/03/22 01:46:35;;;;;;;23.48;14.52;;;8.20;98.10;;;;;;5050954;28;20060;-75
2023/03/22 01:49:03;;;;;;;20.08;14.10;;;8.20;98.00;;;;;;5048334;28;20083;-75
2023/03/22 01:51:29;;;;;;;19.95;13.55;;;8.30;97.90;;;;;;5027589;28;20064;-76
2023/03/22 01:54:00;;;;;;;23.90;13.48;;;8.20;97.80;;;;;;5049579;28;20056;-77
2023/03/22 01:56:29;;;;;;;19.52;13.23;;;8.30;97.90;;;;;;5043725;28;20116;-77
2023/03/22 01:58:55;;;;;;;21.65;13.25;;;8.30;97.80;;;;;;5039200;28;20041;-77
2023/03/22 02:01:21;;;;;;;18.23;13.38;;;8.30;97.70;;;;;;5058120;28;20032;-76
2023/03/22 02:04:07;;;;;;;18.00;12.95;;;8.30;97.80;;;;;;5043150;28;20388;-77
2023/03/22 02:06:37;;;;;;;19.08;12.95;;;8.20;97.80;;;;;;5046370;28;20033;-77
2023/03/22 02:09:15;;;;;;;17.58;13.30;;;8.30;97.90;;;;;;5046771;28;20549;-77
2023/03/22 02:11:45;;;;;;;20.58;11.73;;;8.30;97.70;;;;;;5049479;28;20075;-75
2023/03/22 02:14:25;;;;;;;18.65;12.48;;;8.30;97.70;;;;;;5050481;28;20381;-78
2023/03/22 02:16:56;;;;;;;16.73;11.57;;;8.30;97.60;;;;;;5050832;28;20111;-78
2023/03/22 02:19:33;;;;;;;18.92;11.98;;;8.20;97.60;;;;;;5051182;28;20068;-76
2023/03/22 02:22:05;;;;;;;18.98;11.63;;;8.20;97.60;;;;;;5050871;28;20108;-78
2023/03/22 02:25:00;;;;;;;18.15;11.95;;;8.20;97.60;;;;;;5028368;28;20037;-76
2023/03/22 02:27:51;;;;;;;20.15;11.77;;;8.30;97.50;;;;;;5044864;28;20041;-77
2023/03/22 02:30:25;;;;;;;;;;;8.20;97.50;;;;;;5051136;28;20078;-76
2023/03/22 02:33:23;;;;;;;17.20;10.80;;;8.20;97.30;;;;;;5039825;28;20392;-77
2023/03/22 02:36:18;;;;;;;17.90;11.77;;;8.20;97.40;;;;;;5046334;28;20053;-78
2023/03/22 02:39:15;;;;;;;20.13;11.93;;;8.20;97.60;;;;;;5045608;28;20382;-78
2023/03/22 02:42:07;;;;;;;20.83;11.68;;;8.30;97.40;;;;;;5047533;28;20076;-77
2023/03/22 02:44:53;;;;;;;16.35;11.15;;;8.30;97.30;;;;;;5040612;28;20028;-77
2023/03/22 02:47:37;;;;;;;18.80;11.52;;;8.30;97.10;;;;;;5043357;28;20079;-77
2023/03/22 02:50:24;;;;;;;17.20;11.48;;;8.30;97.10;;;;;;5041835;28;20066;-74
2023/03/22 02:52:59;;;;;;;18.33;11.98;;;8.30;97.10;;;;;;5036743;28;20025;-78
2023/03/22 02:55:39;;;;;;;16.35;11.23;;;8.30;97.00;;;;;;5041745;28;20477;-78
2023/03/22 02:58:22;;;;;;;18.13;11.57;;;8.30;97.00;;;;;;5043183;28;20078;-78
2023/03/22 03:00:52;;;;;;;21.95;11.82;;;8.30;96.80;;;;;;5049904;28;20105;-78
2023/03/22 03:03:19;;;;;;;16.35;11.13;;;8.40;96.80;;;;;;5049051;28;20040;-77
2023/03/22 03:05:51;;;;;;;16.13;10.95;;;8.40;96.80;;;;;;5045274;28;20037;-75
2023/03/22 03:08:18;;;;;;;16.35;11.15;;;8.40;96.80;;;;;;5043138;28;20121;-76
2023/03/22 03:10:44;;;;;;;16.83;11.27;;;8.40;96.60;;;;;;5060126;28;20029;-75
2023/03/22 03:13:15;;;;;;;18.00;11.23;;;8.40;96.80;;;;;;5047019;28;20060;-76
2023/03/22 03:15:42;;;;;;;16.55;11.55;;;8.40;96.70;;;;;;5048217;28;20071;-76
2023/03/22 03:18:33;;;;;;;18.60;11.57;;;8.40;96.60;;;;;;5047621;28;20059;-76
2023/03/22 03:21:22;;;;;;;;;;;8.40;96.60;;;;;;5040059;28;20043;-76
2023/03/22 03:24:21;;;;;;;16.85;10.60;;;8.50;96.50;;;;;;5045497;28;19952;-75
2023/03/22 03:27:05;;;;;;;17.50;10.82;;;8.50;96.30;;;;;;5047933;28;20033;-75
2023/03/22 03:30:00;;;;;;;15.70;10.05;;;8.50;96.30;;;;;;5049622;28;20034;-76
2023/03/22 03:32:53;;;;;;;18.05;10.05;;;8.50;96.30;;;;;;5040591;28;20052;-76
2023/03/22 03:35:36;;;;;;;15.95;10.70;;;8.50;95.90;;;;;;5042845;28;20381;-76
2023/03/22 03:38:09;;;;;;;16.42;10.55;;;8.50;96.00;;;;;;5039138;28;20033;-75
2023/03/22 03:40:47;;;;;;;16.73;10.77;;;8.60;95.80;;;;;;5047143;28;20637;-75
2023/03/22 03:43:14;;;;;;;17.73;10.30;;;8.60;95.70;;;;;;5048188;28;20469;-75
2023/03/22 03:45:40;;;;;;;18.48;10.05;;;8.60;95.80;;;;;;5048548;28;20054;-75
2023/03/22 03:48:13;;;;;;;17.90;10.63;;;8.50;95.80;;;;;;5042808;28;20029;-75
2023/03/22 03:50:39;;;;;;;19.92;10.23;;;8.60;95.80;;;;;;5036651;28;20045;-76
2023/03/22 03:53:04;;;;;;;16.30;9.73;;;8.60;95.80;;;;;;5032314;28;20029;-74
2023/03/22 03:55:30;;;;;;;14.50;9.60;;;8.60;95.70;;;;;;5050190;28;20044;-75
2023/03/22 03:57:56;;;;;;;15.13;9.75;;;8.50;95.80;;;;;;5050364;28;20065;-75
2023/03/22 04:00:21;;;;;;;15.95;9.23;;;8.50;95.90;;;;;;5050764;28;20474;-76
2023/03/22 04:02:47;;;;;;;16.08;10.02;;;8.60;95.80;;;;;;5050367;28;20021;-76
2023/03/22 04:05:13;;;;;;;15.10;9.98;;;8.50;95.70;;;;;;5046612;28;20115;-76
2023/03/22 04:07:39;;;;;;;13.38;9.43;;;8.60;95.80;;;;;;5049599;28;20043;-76
2023/03/22 04:10:05;;;;;;;19.15;9.98;;;8.60;95.40;;;;;;5049970;28;20033;-75
2023/03/22 04:12:31;;;;;;;17.45;9.50;;;8.70;95.30;;;;;;5050479;28;20029;-75
2023/03/22 04:14:57;;;;;;;15.18;9.27;;;8.70;95.30;;;;;;5049111;28;20469;-75
2023/03/22 04:17:23;;;;;;;15.27;9.65;;;8.70;95.20;;;;;;5029399;28;20033;-76
2023/03/22 04:19:48;;;;;;;19.23;9.20;;;8.60;95.20;;;;;;5044692;28;20055;-75
2023/03/22 04:22:17;;;;;;;15.65;9.00;;;8.70;95.20;;;;;;5041178;28;20037;-75
2023/03/22 04:24:48;;;;;;;16.08;9.23;;;8.70;95.40;;;;;;5044495;28;20035;-76
2023/03/22 04:27:15;;;;;;;16.45;9.80;;;8.70;95.10;;;;;;5044733;28;20397;-76
2023/03/22 04:29:46;;;;;;;16.38;9.63;;;8.70;95.10;;;;;;5038656;28;20033;-74
2023/03/22 04:32:17;;;;;;;18.45;9.23;;;8.60;95.30;;;;;;5042372;28;20112;-79
2023/03/22 04:34:46;;;;;;;16.75;9.27;;;8.70;94.90;;;;;;5047298;28;20057;-75
2023/03/22 04:37:12;;;;;;;13.40;9.13;;;8.60;95.20;;;;;;5034750;28;20037;-78
2023/03/22 04:39:38;;;;;;;15.43;8.73;;;8.70;94.90;;;;;;5027989;28;20512;-79
2023/03/22 04:42:04;;;;;;;15.57;8.85;;;8.60;95.00;;;;;;5046021;28;20103;-78
2023/03/22 04:44:29;;;;;;;15.07;8.05;;;8.60;95.10;;;;;;5050105;28;20063;-79
2023/03/22 04:46:55;;;;;;;17.23;8.98;;;8.60;95.20;;;;;;5044469;28;20029;-79
2023/03/22 04:49:20;;;;;;;15.73;9.20;;;8.60;95.30;;;;;;5046875;28;20131;-79
2023/03/22 04:51:46;;;;;;;14.90;8.52;;;8.60;95.10;;;;;;5047286;28;20060;-79
2023/03/22 04:54:12;;;;;;;16.25;8.70;;;8.60;94.80;;;;;;5051174;28;20374;-79
2023/03/22 04:56:37;;;;;;;13.63;8.32;;;8.60;95.00;;;;;;5051677;28;20071;-76
2023/03/22 04:59:03;;;;;;;13.48;8.13;;;8.60;94.90;;;;;;5053616;28;20029;-79
2023/03/22 05:01:28;;;;;;;17.98;8.90;;;8.60;95.00;;;;;;5049935;28;20385;-77
2023/03/22 05:03:54;;;;;;;13.05;8.52;;;8.60;94.90;;;;;;5048913;28;20032;-76
2023/03/22 05:06:20;;;;;;;14.88;9.07;;;8.60;95.10;;;;;;5038261;28;20040;-73
2023/03/22 05:08:45;;;;;;;13.50;8.10;;;8.70;94.90;;;;;;5054716;28;20064;-77
2023/03/22 05:11:13;;;;;;;16.35;9.73;;;8.70;94.80;;;;;;5056213;28;20049;-74
2023/03/22 05:13:39;;;;;;;14.60;7.63;;;8.70;94.90;;;;;;5050740;28;20048;-77
2023/03/22 05:16:05;;;;;;;13.60;8.40;;;8.70;94.80;;;;;;5050924;28;20071;-76
2023/03/22 05:18:31;;;;;;;17.20;9.35;;;8.70;94.80;;;;;;5051177;28;20159;-75
2023/03/22 05:20:57;;;;;;;12.93;7.82;;;8.60;94.90;;;;;;5041454;28;20532;-76
2023/03/22 05:23:23;;;;;;;13.57;8.13;;;8.60;94.80;;;;;;5048240;28;20481;-76
2023/03/22 05:25:51;;;;;;;16.88;8.82;;;8.50;95.10;;;;;;5048976;28;20054;-76
2023/03/22 05:28:21;;;;;;;12.30;8.50;;;8.60;95.00;;;;;;5049967;28;20461;-81
2023/03/22 05:30:47;;;;;;;12.93;8.25;;;8.60;95.20;;;;;;5052564;28;20172;-77
2023/03/22 05:33:15;;;;;;;15.48;9.00;;;8.60;95.20;;;;;;5047199;28;20102;-72
2023/03/22 05:35:42;;;;;;;13.95;8.30;;;8.60;95.20;;;;;;5039890;28;20087;-79
2023/03/22 05:38:08;;;;;;;17.02;8.27;;;8.60;95.00;;;;;;5046937;28;20087;-80
2023/03/22 05:40:34;;;;;;;13.48;8.55;;;8.60;95.20;;;;;;5052778;28;20065;-79
2023/03/22 05:42:59;;;;;;;16.42;8.02;;;8.60;95.00;;;;;;5048842;28;20057;-79
2023/03/22 05:45:25;;;;;;;15.25;8.30;;;8.60;95.00;;;;;;5053790;28;20405;-80
2023/03/22 05:47:52;;;;;;;13.75;8.15;;;8.70;95.10;;;;;;5045799;28;20091;-76
2023/03/22 05:50:20;;;;;;;14.10;8.35;;;8.60;95.00;;;;;;5052747;28;20067;-75
2023/03/22 05:52:46;;;;;;;14.02;8.13;;;8.60;95.10;;;;;;5028019;28;20045;-79
2023/03/22 05:55:13;;;;;;;14.13;8.50;;;8.60;95.30;;;;;;5054579;28;20028;-79
2023/03/22 05:57:39;;;;;;;16.05;8.20;;;8.60;95.50;;;;;;5056148;28;20040;-79
2023/03/22 06:00:10;;;;;;;15.45;8.48;;;8.60;95.20;;;;;;5051555;28;20029;-74
2023/03/22 06:02:35;;;;;;;12.30;7.90;;;8.60;95.30;;;;;;5046528;28;20037;-79
2023/03/22 06:05:01;;;;;;;11.85;7.82;;;8.60;95.40;;;;;;5049464;28;20465;-73
2023/03/22 06:07:26;;;;;;;15.10;8.10;;;8.70;95.30;;;;;;5046524;28;20040;-76
2023/03/22 06:09:52;;;;;;;18.98;7.80;;;8.70;95.20;;;;;;5052668;28;20082;-76
2023/03/22 06:12:21;;;;;;;11.10;7.30;;;8.70;95.10;;;;;;5052944;28;20063;-74
2023/03/22 06:14:46;;;;;;;12.93;8.20;;;8.70;95.10;;;;;;5053003;28;20378;-74
2023/03/22 06:17:12;;;;;;;11.88;8.52;;;8.80;94.90;;;;;;5053118;28;20040;-75
2023/03/22 06:19:37;;;;;;;15.82;8.50;;;8.80;94.80;;;;;;5052451;28;20432;-76
2023/03/22 06:22:03;;;;;;;13.23;7.93;;;8.90;94.90;;;;;;5046779;28;20044;-76
2023/03/22 06:24:28;;;;;;;11.60;8.40;;;9.00;94.60;;;;;;5047097;28;20466;-77
2023/03/22 06:26:54;;;;;;;12.88;8.07;;;9.00;94.30;;;;;;5044251;28;20067;-75
2023/03/22 06:29:20;;;;;;;12.30;7.90;;;9.10;94.30;;;;;;5051232;28;20040;-75
2023/03/22 06:31:46;;;;;;;13.95;7.95;;;9.10;94.10;;;;;;5049544;28;20040;-74
2023/03/22 06:34:12;;;;;;;12.43;7.20;;;9.20;94.00;;;;;;5048356;28;21430;-76
2023/03/22 06:36:37;;;;;;;15.68;8.43;;;9.20;93.90;;;;;;5039707;28;20033;-73
2023/03/22 06:39:04;;;;;;;14.25;7.50;;;9.20;93.90;;;;;;5048166;28;20040;-77
2023/03/22 06:41:29;;;;;;;12.95;7.65;;;9.30;93.60;;;;;;5048015;28;20051;-78
2023/03/22 06:43:55;;;;;;;12.48;7.90;;;9.30;93.30;;;;;;5048059;28;20024;-75
2023/03/22 06:46:20;;;;;;;13.50;7.55;;;9.40;93.30;;;;;;5040825;28;20033;-73
2023/03/22 06:48:46;;;;;;;10.93;6.57;;;9.40;93.30;;;;;;5047511;28;20040;-75
2023/03/22 06:51:11;;;;;;;13.13;7.35;;;9.50;93.40;;;;;;5040533;28;20032;-76
2023/03/22 06:53:37;;;;;;;14.68;7.65;;;9.50;93.20;;;;;;5045985;28;20032;-76
2023/03/22 06:56:03;;;;;;;11.30;7.15;;;9.60;93.20;;;;;;5046995;28;20061;-76
2023/03/22 06:58:28;;;;;;;10.20;6.88;;;9.60;93.20;;;;;;5048474;28;20025;-72
2023/03/22 07:00:55;;;;;;;13.65;7.97;;;9.70;93.20;;;;;;5045222;28;20064;-76
2023/03/22 07:03:20;;;;;;;13.63;7.78;;;9.70;92.70;;;;;;5047303;28;20400;-77
2023/03/22 07:05:45;;;;;;;14.00;8.40;;;9.70;92.80;;;;;;5040346;28;20017;-77
2023/03/22 07:08:11;;;;;;;11.02;7.80;;;9.70;93.00;;;;;;5047824;28;20029;-76
2023/03/22 07:10:36;;;;;;;12.27;8.20;;;9.80;93.00;;;;;;5048809;28;20374;-75
2023/03/22 07:13:02;;;;;;;13.45;7.40;;;9.80;92.80;;;;;;5042842;28;20041;-77
2023/03/22 07:15:29;;;;;;;16.55;7.97;;;9.80;92.30;;;;;;5047125;28;20123;-74
2023/03/22 07:17:54;;;;;;;15.38;7.78;;;9.90;92.40;;;;;;5042778;28;20021;-74
2023/03/22 07:20:20;;;;;;;14.25;8.23;;;9.90;92.30;;;;;;5044343;28;20389;-72
2023/03/22 07:22:45;;;;;;;10.95;7.68;;;10.00;92.10;;;;;;5042613;28;20047;-75
2023/03/22 07:25:11;;;;;;;15.57;8.07;;;10.10;92.10;;;;;;5051199;28;20045;-73
2023/03/22 07:27:37;;;;;;;13.52;8.73;;;10.20;92.40;;;;;;5044921;28;20108;-75
2023/03/22 07:30:04;;;;;;;13.05;8.52;;;10.30;92.00;;;;;;5047004;28;20028;-73
2023/03/22 07:32:29;;;;;;;12.90;8.80;;;10.40;91.80;;;;;;5049745;28;20033;-74
2023/03/22 07:34:55;;;;;;;12.95;8.02;;;10.50;91.40;;;;;;5045881;28;20048;-74
2023/03/22 07:37:20;;;;;;;14.18;8.40;;;10.50;90.80;;;;;;5039775;28;20124;-74
2023/03/22 07:39:46;;;;;;;13.88;8.00;;;10.60;90.80;;;;;;5047486;28;20056;-75
2023/03/22 07:42:11;;;;;;;13.10;8.00;;;10.60;91.00;;;;;;5051902;28;20056;-74
2023/03/22 07:44:37;;;;;;;14.95;8.20;;;10.60;90.80;;;;;;5049123;28;20033;-74
2023/03/22 07:47:02;;;;;;;14.73;8.35;;;10.60;90.80;;;;;;5023793;28;20040;-74
2023/03/22 07:49:29;;;;;;;13.38;8.55;;;10.50;90.50;;;;;;5046533;28;20047;-73
2023/03/22 07:51:55;;;;;;;14.35;8.55;;;10.60;90.80;;;;;;5050578;28;20025;-74
2023/03/22 07:54:20;;;;;;;12.70;8.35;;;10.60;91.00;;;;;;5043756;28;20159;-72
2023/03/22 07:56:46;;;;;;;14.23;8.65;;;10.70;90.70;;;;;;5043135;28;20373;-72
2023/03/22 07:59:13;;;;;;;11.70;8.48;;;10.70;90.70;;;;;;5047805;28;20037;-73
2023/03/22 08:01:39;;;;;;;13.85;8.98;;;10.70;90.40;;;;;;5049580;28;20028;-73
2023/03/22 08:04:04;;;;;;;14.48;9.00;;;10.70;90.50;;;;;;5027404;28;20206;-73
2023/03/22 08:06:31;;;;;;;16.25;8.68;;;10.70;90.10;;;;;;5045732;28;20327;-73
2023/03/22 08:08:58;;;;;;;16.80;8.23;;;10.80;90.20;;;;;;5050149;28;20029;-73
2023/03/22 08:11:23;;;;;;;13.70;8.63;;;10.80;90.30;;;;;;5049300;28;20021;-71
2023/03/22 08:13:49;;;;;;;16.52;9.07;;;10.80;90.60;;;;;;5048846;28;20389;-72
2023/03/22 08:16:14;;;;;;;14.85;8.90;;;10.80;90.40;;;;;;5050883;28;20083;-71
2023/03/22 08:18:40;;;;;;;11.65;8.55;;;10.90;89.80;;;;;;5048339;28;20057;-72
2023/03/22 08:21:05;;;;;;;13.95;8.63;;;11.00;89.80;;;;;;5047710;28;20115;-72
2023/03/22 08:23:31;;;;;;;13.80;8.45;;;11.20;89.60;;;;;;5047924;28;20029;-71
2023/03/22 08:25:57;;;;;;;13.60;8.15;;;11.40;89.50;;;;;;5046843;28;20108;-72
2023/03/22 08:28:22;;;;;;;13.30;7.80;;;11.50;88.80;;;;;;5026166;28;20064;-72
2023/03/22 08:30:48;;;;;;;17.88;8.43;;;11.50;88.40;;;;;;5046936;28;20029;-72
2023/03/22 08:33:14;;;;;;;12.38;7.63;;;11.60;88.30;;;;;;5044809;28;20037;-72
2023/03/22 08:35:40;;;;;;;11.63;7.82;;;11.60;88.10;;;;;;5039887;28;20531;-71
2023/03/22 08:38:06;;;;;;;12.45;7.57;;;11.60;88.60;;;;;;5042671;28;20605;-72
2023/03/22 08:40:31;;;;;;;13.32;8.15;;;11.60;88.50;;;;;;5044363;28;20041;-71
2023/03/22 08:42:57;;;;;;;13.43;7.93;;;11.60;88.60;;;;;;5050798;28;20040;-72
2023/03/22 08:45:23;;;;;;;13.77;8.10;;;11.70;88.30;;;;;;5050202;28;20029;-72
2023/03/22 08:47:49;;;;;;;18.05;7.32;;;11.80;88.10;;;;;;5048930;28;20045;-73
2023/03/22 08:50:14;;;;;;;11.38;7.30;;;11.80;87.40;;;;;;5048557;28;20115;-71
2023/03/22 08:52:40;;;;;;;12.68;7.43;;;12.00;87.60;;;;;;5046928;28;20389;-71
2023/03/22 08:55:07;;;;;;;10.85;7.18;;;12.20;87.40;;;;;;5041344;28;20087;-72
2023/03/22 08:57:33;;;;;;;13.45;6.70;;;12.10;86.30;;;;;;5032003;28;20169;-72
2023/03/22 08:59:59;;;;;;;13.20;7.05;;;12.20;86.40;;;;;;5042435;28;20049;-72
2023/03/22 09:02:25;;;;;;;13.10;7.07;;;12.60;86.10;;;;;;5039927;28;20036;-73
2023/03/22 09:04:51;;;;;;;13.65;6.53;;;12.60;85.00;;;;;;5047859;28;20493;-72
2023/03/22 09:07:19;;;;;;;12.80;6.25;;;12.70;85.50;;;;;;5043745;28;20029;-72
2023/03/22 09:09:44;;;;;;;11.50;6.05;;;13.00;84.90;;;;;;5049231;28;20484;-72
2023/03/22 09:12:10;;;;;;;10.00;5.68;;;13.00;84.00;;;;;;5050043;28;20125;-72
2023/03/22 09:14:36;;;;;;;10.50;5.25;;;13.10;84.50;;;;;;5032265;28;20025;-72
2023/03/22 09:17:01;;;;;;;9.98;5.57;;;13.30;82.70;;;;;;5048629;28;20045;-71
2023/03/22 09:19:27;;;;;;;10.93;4.68;;;13.40;82.20;;;;;;5049454;28;20106;-72
2023/03/22 09:21:53;;;;;;;8.60;4.60;;;13.10;81.60;;;;;;5040264;28;20025;-71
2023/03/22 09:24:19;;;;;;;10.65;4.45;;;13.00;82.50;;;;;;5043135;28;20037;-72
2023/03/22 09:26:45;;;;;;;12.10;4.32;;;13.20;81.30;;;;;;5047765;28;20057;-72
2023/03/22 09:29:12;;;;;;;11.35;4.70;;;13.20;81.00;;;;;;5050061;28;20029;-72
2023/03/22 09:31:38;;;;;;;10.20;4.45;;;13.30;80.60;;;;;;5041680;28;20047;-73
2023/03/22 09:34:04;;;;;;;10.35;4.28;;;13.80;79.60;;;;;;5050403;28;20385;-72
2023/03/22 09:36:31;;;;;;;8.48;4.13;;;13.70;78.40;;;;;;5045038;28;20037;-72
2023/03/22 09:38:58;;;;;;;8.00;4.07;;;13.60;79.30;;;;;;5044837;28;20021;-73
2023/03/22 09:41:29;;;;;;;10.40;3.72;;;13.80;79.90;;;;;;5053002;28;20472;-73
2023/03/22 09:44:01;;;;;;;11.50;3.80;;;13.70;79.40;;;;;;5052049;28;20504;-73
2023/03/22 09:46:34;;;;;;;8.55;3.67;;;13.90;78.50;;;;;;5049007;28;20030;-73
2023/03/22 09:49:04;;;;;;;9.30;3.38;;;14.00;79.20;;;;;;5046378;28;20029;-69
2023/03/22 09:51:42;;;;;;;7.18;3.33;;;13.80;77.40;;;;;;5044042;28;20029;-74
2023/03/22 09:54:33;;;;;;;9.30;3.85;;;13.70;77.70;;;;;;5045642;28;20040;-74
2023/03/22 09:57:06;;;;;;;5.75;2.60;;;13.80;77.30;;;;;;5049248;28;20394;-76
2023/03/22 10:00:13;;;;;;;6.35;2.45;;;14.10;78.50;;;;;;5055189;28;20037;-75
2023/03/22 10:02:48;;;;;;;6.25;2.17;;;14.00;75.90;;;;;;5050329;28;20029;-76
2023/03/22 10:05:19;;;;;;;7.13;2.25;;;13.60;75.90;;;;;;5043866;28;20347;-76
2023/03/22 10:08:10;;;;;;;7.82;2.08;;;13.30;75.50;;;;;;5048305;28;20424;-75
2023/03/22 10:10:40;;;;;;;12.45;2.80;;;13.20;77.20;;;;;;5050355;28;20029;-75
2023/03/22 10:13:18;;;;;;;8.15;2.47;;;13.20;77.30;;;;;;5053461;28;20078;-75
2023/03/22 10:15:51;;;;;;;11.55;2.15;;;13.20;77.80;;;;;;5050954;28;20033;-76
2023/03/22 10:18:21;;;;;;;8.38;2.33;;;13.30;78.40;;;;;;5048099;28;20053;-76
2023/03/22 10:21:06;;;;;;;7.38;2.10;;;13.50;78.70;;;;;;5047984;28;20076;-75
2023/03/22 10:24:13;;;;;;;7.82;1.88;;;13.40;76.30;;;;;;5049224;28;20040;-75
2023/03/22 10:26:42;;;;;;;5.18;2.03;;;13.40;76.70;;;;;;5047712;28;20028;-76
2023/03/22 10:29:14;;;;;;;7.18;2.05;;;13.30;75.40;;;;;;5035118;28;20029;-75
2023/03/22 10:31:43;;;;;;;7.35;2.08;;;13.20;77.10;;;;;;5046602;28;20029;-77
2023/03/22 10:34:26;;;;;;;7.22;2.20;;;13.20;76.70;;;;;;5043567;28;20052;-75
2023/03/22 10:36:52;;;;;;;7.10;2.00;;;13.20;76.90;;;;;;5043632;28;20053;-76
2023/03/22 10:39:39;;;;;;;7.97;2.15;;;13.30;75.10;;;;;;5033848;28;20071;-77
2023/03/22 10:42:10;;;;;;;5.32;1.80;;;13.20;75.90;;;;;;5052570;28;20091;-77
2023/03/22 10:44:47;;;;;;;6.93;2.40;;;13.10;75.60;;;;;;5050784;28;20056;-76
2023/03/22 10:47:17;;;;;;;6.47;1.95;;;13.20;75.40;;;;;;5031081;28;20036;-76
2023/03/22 10:49:50;;;;;;;6.53;2.08;;;13.30;75.70;;;;;;5050368;28;20033;-74
2023/03/22 10:52:39;;;;;;;6.20;2.13;;;13.30;76.00;;;;;;5043989;28;20073;-76
2023/03/22 10:55:09;;;;;;;6.15;1.80;;;13.60;75.80;;;;;;5050825;28;20042;-76
2023/03/22 10:57:35;;;;;;;7.82;2.47;;;13.60;75.20;;;;;;5033726;28;20043;-77
2023/03/22 11:00:09;;;;;;;3.25;1.58;;;13.50;75.30;;;;;;5051485;28;20040;-77
2023/03/22 11:02:45;;;;;;;6.63;2.13;;;13.30;75.80;;;;;;5048555;28;20039;-77
2023/03/22 11:05:25;;;;;;;7.15;2.03;;;13.60;76.00;;;;;;5044216;28;20031;-74
2023/03/22 11:07:51;;;;;;;6.07;1.98;;;13.60;74.50;;;;;;5046102;28;20035;-78
2023/03/22 11:10:26;;;;;;;7.05;2.60;;;13.50;74.50;;;;;;5045462;28;20111;-77
2023/03/22 11:12:55;;;;;;;5.00;2.15;;;13.50;74.90;;;;;;5045356;28;20044;-76
2023/03/22 11:15:31;;;;;;;6.60;2.50;;;13.50;74.60;;;;;;5048544;28;20082;-77
2023/03/22 11:18:06;;;;;;;7.80;2.17;;;13.60;74.60;;;;;;5048856;28;20039;-76
2023/03/22 11:20:33;;;;;;;9.90;2.50;;;13.70;75.50;;;;;;5042783;28;20053;-76
2023/03/22 11:23:04;;;;;;;9.75;2.72;;;13.70;75.30;;;;;;5042472;28;20060;-77
2023/03/22 11:25:31;;;;;;;;;;;13.60;74.00;;;;;;5045730;28;20110;-79
2023/03/22 11:28:18;;;;;;;7.55;3.00;;;13.80;73.80;;;;;;5049665;28;19905;-80
2023/03/22 11:31:10;;;;;;;9.25;3.10;;;13.60;73.60;;;;;;5048939;28;20029;-78
2023/03/22 11:33:43;;;;;;;5.57;2.90;;;13.50;73.70;;;;;;5047271;28;20040;-80
2023/03/22 11:36:17;;;;;;;7.78;2.92;;;13.60;75.00;;;;;;5042660;28;20032;-79
2023/03/22 11:38:43;;;;;;;7.85;2.85;;;13.60;74.80;;;;;;5043290;28;20063;-77
2023/03/22 11:41:24;;;;;;;8.15;3.00;;;13.60;73.90;;;;;;5044912;28;20478;-79
2023/03/22 11:43:56;;;;;;;8.25;2.97;;;13.60;73.30;;;;;;5050821;28;20029;-79
2023/03/22 11:46:23;;;;;;;8.75;3.35;;;13.60;73.80;;;;;;5048636;28;20036;-78
2023/03/22 11:48:51;;;;;;;5.10;2.90;;;13.80;74.50;;;;;;5050840;28;20029;-79
2023/03/22 11:51:29;;;;;;;8.70;3.40;;;13.70;73.00;;;;;;5044671;28;20025;-78
2023/03/22 11:54:19;;;;;;;7.32;3.10;;;13.70;73.30;;;;;;5030123;28;20355;-78
2023/03/22 11:56:47;;;;;;;7.38;3.63;;;13.70;72.90;;;;;;5048383;28;20736;-77
2023/03/22 11:59:15;;;;;;;10.07;3.42;;;13.70;73.30;;;;;;5042470;28;20032;-76
2023/03/22 12:01:51;;;;;;;6.85;3.28;;;13.70;74.20;;;;;;5045225;28;20037;-77
2023/03/22 12:04:23;;;;;;;6.15;3.60;;;13.80;74.20;;;;;;5046488;28;20037;-79
2023/03/22 12:06:54;;;;;;;8.85;4.20;;;13.60;73.20;;;;;;5040234;28;20037;-78
2023/03/22 12:09:38;;;;;;;;;;;13.60;73.10;;;;;;5046013;28;20090;-76
2023/03/22 12:12:09;;;;;;;5.18;3.67;;;13.50;72.80;;;;;;5049019;28;19912;-78
2023/03/22 12:14:59;;;;;;;9.50;4.25;;;13.50;71.90;;;;;;5051287;28;20457;-77
2023/03/22 12:17:47;;;;;;;7.68;4.40;;;13.50;72.00;;;;;;5051208;28;20512;-73
2023/03/22 12:20:28;;;;;;;8.88;4.38;;;13.50;73.00;;;;;;5042233;28;20055;-77
2023/03/22 12:22:54;;;;;;;8.13;4.50;;;13.50;72.70;;;;;;5049569;28;20029;-77
2023/03/22 12:25:24;;;;;;;7.85;4.20;;;13.40;71.50;;;;;;5050181;28;20035;-78
2023/03/22 12:27:57;;;;;;;5.32;4.15;;;13.40;72.30;;;;;;5050876;28;20017;-77
2023/03/22 12:30:26;;;;;;;13.05;5.13;;;13.30;71.90;;;;;;5049999;28;20493;-78
2023/03/22 12:33:00;;;;;;;8.55;4.90;;;13.30;72.20;;;;;;5046162;28;20033;-77
2023/03/22 12:35:30;;;;;;;8.07;4.60;;;13.40;73.00;;;;;;5049145;28;20047;-79
2023/03/22 12:37:58;;;;;;;7.93;4.53;;;13.30;73.10;;;;;;5048643;28;20158;-78
2023/03/22 12:40:27;;;;;;;8.93;4.68;;;13.40;72.70;;;;;;5049086;28;20031;-78
2023/03/22 12:42:58;;;;;;;6.10;4.68;;;13.30;73.30;;;;;;5050383;28;20363;-77
2023/03/22 12:45:27;;;;;;;8.35;4.70;;;13.20;72.40;;;;;;5049957;28;20393;-77
2023/03/22 12:48:04;;;;;;;12.77;5.60;;;13.20;73.70;;;;;;5048519;28;20033;-78
2023/03/22 12:50:40;;;;;;;8.55;5.65;;;13.20;73.60;;;;;;5027056;28;20033;-78
2023/03/22 12:53:09;;;;;;;9.30;5.50;;;13.10;73.10;;;;;;5049056;28;20033;-79
2023/03/22 12:55:37;;;;;;;8.77;6.28;;;13.10;74.00;;;;;;5048340;28;20083;-78
2023/03/22 12:58:07;;;;;;;8.98;6.20;;;13.00;75.50;;;;;;5050611;28;20033;-78